createdAt,value
2019-01-23T00:01:51.955Z,-3.34
2019-01-23T00:04:41.667Z,-3.33
2019-01-23T00:07:31.762Z,-3.33
2019-01-23T00:10:21.160Z,-3.34
2019-01-23T00:13:11.252Z,-3.37
2019-01-23T00:16:01.402Z,-3.43
2019-01-23T00:18:51.395Z,-3.42
2019-01-23T00:21:41.456Z,-3.46
2019-01-23T00:24:31.019Z,-3.49
2019-01-23T00:27:20.712Z,-3.51
2019-01-23T00:30:10.802Z,-3.57
2019-01-23T00:33:00.779Z,-3.60
2019-01-23T00:35:50.573Z,-3.62
2019-01-23T00:38:40.232Z,-3.64
2019-01-23T00:41:30.511Z,-3.68
2019-01-23T00:44:21.611Z,-3.71
2019-01-23T00:47:11.800Z,-3.71
2019-01-23T00:50:01.270Z,-3.71
2019-01-23T00:52:50.920Z,-3.74
2019-01-23T00:55:40.978Z,-3.77
2019-01-23T00:58:30.768Z,-3.77
2019-01-23T01:01:20.557Z,-3.80
2019-01-23T01:04:10.514Z,-3.84
2019-01-23T01:07:00.894Z,-3.89
2019-01-23T01:09:50.836Z,-3.90
2019-01-23T01:12:41.013Z,-3.94
2019-01-23T01:15:31.141Z,-3.96
2019-01-23T01:18:21.130Z,-4.00
2019-01-23T01:21:11.232Z,-4.01
2019-01-23T01:24:01.972Z,-4.02
2019-01-23T01:26:51.987Z,-4.05
2019-01-23T01:29:42.017Z,-4.07
2019-01-23T01:32:32.126Z,-4.09
2019-01-23T01:35:22.469Z,-4.11
2019-01-23T01:38:12.630Z,-4.10
2019-01-23T01:41:02.179Z,-4.13
2019-01-23T01:43:51.834Z,-4.13
2019-01-23T01:46:41.689Z,-4.16
2019-01-23T01:49:31.638Z,-4.15
2019-01-23T01:52:21.643Z,-4.17
2019-01-23T01:55:12.322Z,-4.17
2019-01-23T01:58:03.418Z,-4.21
2019-01-23T02:00:53.572Z,-4.20
2019-01-23T02:03:43.402Z,-4.23
2019-01-23T02:06:32.842Z,-4.23
2019-01-23T02:09:22.756Z,-4.24
2019-01-23T02:12:12.703Z,-4.25
2019-01-23T02:15:02.434Z,-4.23
2019-01-23T02:17:52.611Z,-4.26
2019-01-23T02:20:42.599Z,-4.31
2019-01-23T02:23:32.769Z,-4.32
2019-01-23T02:26:22.218Z,-4.31
2019-01-23T02:29:12.292Z,-4.31
2019-01-23T02:32:02.660Z,-4.35
2019-01-23T02:34:52.733Z,-4.36
2019-01-23T02:37:42.186Z,-4.37
2019-01-23T02:40:41.266Z,-4.38
2019-01-23T02:43:31.253Z,-4.38
2019-01-23T02:46:21.043Z,-4.42
2019-01-23T02:49:10.829Z,-4.39
2019-01-23T02:52:00.886Z,-4.42
2019-01-23T02:54:51.051Z,-4.41
2019-01-23T02:57:40.904Z,-4.44
2019-01-23T03:00:30.605Z,-4.44
2019-01-23T03:03:20.425Z,-4.45
2019-01-23T03:06:11.865Z,-4.45
2019-01-23T03:09:01.659Z,-4.48
2019-01-23T03:11:53.437Z,-4.51
2019-01-23T03:14:44.115Z,-4.52
2019-01-23T03:17:33.861Z,-4.50
2019-01-23T03:20:24.167Z,-4.51
2019-01-23T03:23:14.583Z,-4.51
2019-01-23T03:26:05.212Z,-4.52
2019-01-23T03:28:55.234Z,-4.52
2019-01-23T03:31:45.470Z,-4.52
2019-01-23T03:34:36.675Z,-4.55
2019-01-23T03:37:26.451Z,-4.57
2019-01-23T03:40:19.354Z,-4.52
2019-01-23T03:43:09.169Z,-4.53
2019-01-23T03:45:59.315Z,-4.53
2019-01-23T03:48:49.042Z,-4.52
2019-01-23T03:51:39.197Z,-4.52
2019-01-23T03:54:29.094Z,-4.56
2019-01-23T03:57:19.713Z,-4.56
2019-01-23T04:00:18.451Z,-4.60
2019-01-23T04:03:08.447Z,-4.59
2019-01-23T04:05:57.962Z,-4.58
2019-01-23T04:08:47.944Z,-4.57
2019-01-23T04:11:37.960Z,-4.60
2019-01-23T04:14:28.203Z,-4.60
2019-01-23T04:17:17.908Z,-4.59
2019-01-23T04:20:12.636Z,-4.59
2019-01-23T04:23:04.067Z,-4.62
2019-01-23T04:25:53.902Z,-4.63
2019-01-23T04:28:43.698Z,-4.60
2019-01-23T04:31:33.899Z,-4.62
2019-01-23T04:34:23.703Z,-4.65
2019-01-23T04:37:13.789Z,-4.67
2019-01-23T04:40:03.814Z,-4.64
2019-01-23T04:42:53.979Z,-4.63
2019-01-23T04:45:43.865Z,-4.64
2019-01-23T04:48:33.906Z,-4.63
2019-01-23T04:51:38.878Z,-4.64
2019-01-23T04:54:28.876Z,-4.63
2019-01-23T04:57:18.401Z,-4.62
2019-01-23T05:00:10.317Z,-4.61
2019-01-23T05:03:00.111Z,-4.61
2019-01-23T05:05:50.145Z,-4.60
2019-01-23T05:08:40.344Z,-4.56
2019-01-23T05:11:30.624Z,-4.55
2019-01-23T05:14:20.344Z,-4.54
2019-01-23T05:17:10.115Z,-4.51
2019-01-23T05:20:00.130Z,-4.52
2019-01-23T05:22:49.716Z,-4.50
2019-01-23T05:25:39.778Z,-4.50
2019-01-23T05:28:29.861Z,-4.45
2019-01-23T05:31:20.003Z,-4.42
2019-01-23T05:34:10.517Z,-4.40
2019-01-23T05:37:00.567Z,-4.40
2019-01-23T05:39:50.861Z,-4.37
2019-01-23T05:42:40.645Z,-4.36
2019-01-23T05:45:30.173Z,-4.33
2019-01-23T05:48:20.182Z,-4.33
2019-01-23T05:51:10.277Z,-4.32
2019-01-23T05:54:00.108Z,-4.29
2019-01-23T05:56:50.292Z,-4.29
2019-01-23T05:59:40.437Z,-4.26
2019-01-23T06:02:30.216Z,-4.25
2019-01-23T06:05:19.711Z,-4.26
2019-01-23T06:08:09.455Z,-4.23
2019-01-23T06:10:59.063Z,-4.24
2019-01-23T06:13:48.758Z,-4.24
2019-01-23T06:16:57.785Z,-4.25
2019-01-23T06:19:47.431Z,-4.30
2019-01-23T06:22:37.870Z,-8.74
2019-01-23T06:25:27.163Z,-4.35
2019-01-23T06:28:16.859Z,-4.39
2019-01-23T06:31:07.079Z,-4.41
2019-01-23T06:33:56.776Z,-4.42
2019-01-23T06:36:46.498Z,-4.45
2019-01-23T06:39:36.091Z,-4.44
2019-01-23T06:42:25.730Z,-4.47
2019-01-23T06:45:35.029Z,-4.47
2019-01-23T06:48:24.730Z,-4.52
2019-01-23T06:51:14.736Z,-4.52
2019-01-23T06:54:04.547Z,-4.53
2019-01-23T06:56:54.734Z,-4.53
2019-01-23T06:59:44.435Z,-4.54
2019-01-23T07:02:34.601Z,-4.57
2019-01-23T07:05:24.867Z,-4.58
2019-01-23T07:08:14.499Z,-4.57
2019-01-23T07:11:04.324Z,-4.57
2019-01-23T07:13:55.000Z,-4.60
2019-01-23T07:16:45.099Z,-4.57
2019-01-23T07:19:34.679Z,-4.57
2019-01-23T07:22:24.390Z,-4.54
2019-01-23T07:25:14.640Z,-4.54
2019-01-23T07:28:06.211Z,-4.51
2019-01-23T07:30:56.125Z,-4.46
2019-01-23T07:33:46.269Z,-4.39
2019-01-23T07:36:36.295Z,-4.34
2019-01-23T07:39:26.539Z,-4.26
2019-01-23T07:42:16.493Z,-4.17
2019-01-23T07:45:06.876Z,-4.11
2019-01-23T07:47:56.692Z,-4.03
2019-01-23T07:50:46.735Z,-3.92
2019-01-23T07:53:36.275Z,-3.84
2019-01-23T07:56:25.913Z,-3.75
2019-01-23T07:59:15.666Z,-3.64
2019-01-23T08:02:06.012Z,-3.57
2019-01-23T08:04:55.812Z,-3.46
2019-01-23T08:07:45.936Z,-3.35
2019-01-23T08:10:35.594Z,-3.20
2019-01-23T08:13:25.443Z,-3.06
2019-01-23T08:16:15.510Z,-2.98
2019-01-23T08:19:05.492Z,-2.83
2019-01-23T08:21:55.326Z,-2.71
2019-01-23T08:24:45.300Z,-2.54
2019-01-23T08:27:35.319Z,-2.37
2019-01-23T08:30:25.457Z,-2.22
2019-01-23T08:33:15.350Z,-2.02
2019-01-23T08:36:05.335Z,-1.89
2019-01-23T08:38:55.140Z,-2.03
2019-01-23T08:41:45.012Z,-1.70
2019-01-23T08:44:34.977Z,-1.53
2019-01-23T08:47:24.733Z,-1.40
2019-01-23T08:50:34.047Z,-1.21
2019-01-23T08:53:24.100Z,-0.94
2019-01-23T08:56:14.127Z,-0.64
2019-01-23T08:59:04.551Z,-0.52
2019-01-23T09:01:54.528Z,-0.51
2019-01-23T09:04:44.259Z,-0.47
2019-01-23T09:07:34.420Z,-0.49
2019-01-23T09:10:24.499Z,-0.62
2019-01-23T09:13:14.190Z,-0.49
2019-01-23T09:16:04.045Z,-0.37
2019-01-23T09:18:54.394Z,-0.29
2019-01-23T09:21:44.452Z,-0.19
2019-01-23T09:24:34.147Z,0.00
2019-01-23T09:27:23.908Z,-0.18
2019-01-23T09:30:45.259Z,0.12
2019-01-23T09:34:20.596Z,0.17
2019-01-23T09:37:58.518Z,0.37
2019-01-23T09:41:21.399Z,0.64
2019-01-23T09:44:35.115Z,0.78
2019-01-23T09:47:36.172Z,1.17
2019-01-23T09:50:46.316Z,1.38
2019-01-23T09:54:10.800Z,1.60
2019-01-23T09:57:01.772Z,1.82
2019-01-23T09:59:51.264Z,1.95
2019-01-23T10:02:41.405Z,2.25
2019-01-23T10:05:30.962Z,2.46
2019-01-23T10:08:21.221Z,2.70
2019-01-23T10:11:11.465Z,2.76
2019-01-23T10:14:00.883Z,2.88
2019-01-23T10:16:50.718Z,2.99
2019-01-23T10:19:40.582Z,2.93
2019-01-23T10:22:42.133Z,2.95
2019-01-23T10:25:31.951Z,3.12
2019-01-23T10:28:21.919Z,3.16
2019-01-23T10:31:12.110Z,3.24
2019-01-23T10:34:01.945Z,3.25
2019-01-23T10:36:52.122Z,3.32
2019-01-23T10:39:42.143Z,3.31
2019-01-23T10:42:31.710Z,3.45
2019-01-23T10:45:22.223Z,3.51
2019-01-23T10:48:11.958Z,3.57
2019-01-23T10:51:01.838Z,3.43
2019-01-23T10:53:52.108Z,3.66
2019-01-23T10:56:42.004Z,3.58
2019-01-23T10:59:32.069Z,3.44
2019-01-23T11:02:21.830Z,3.47
2019-01-23T11:05:17.362Z,4.10
2019-01-23T11:08:08.662Z,3.97
2019-01-23T11:10:58.659Z,4.65
2019-01-23T11:13:48.765Z,5.20
2019-01-23T11:16:38.690Z,5.50
2019-01-23T11:19:29.038Z,5.89
2019-01-23T11:22:19.397Z,6.29
2019-01-23T11:25:10.740Z,6.71
2019-01-23T11:28:00.298Z,7.08
2019-01-23T11:30:50.334Z,6.95
2019-01-23T11:33:39.877Z,7.35
2019-01-23T11:36:29.577Z,7.58
2019-01-23T11:39:19.978Z,7.71
2019-01-23T11:42:10.271Z,7.78
2019-01-23T11:44:59.916Z,7.62
2019-01-23T11:47:50.518Z,7.23
2019-01-23T11:50:40.391Z,7.01
2019-01-23T11:53:30.244Z,6.92
2019-01-23T11:56:20.328Z,6.85
2019-01-23T11:59:10.607Z,6.77
2019-01-23T12:02:00.717Z,6.45
2019-01-23T12:04:50.563Z,6.31
2019-01-23T12:07:40.517Z,5.56
2019-01-23T12:10:30.720Z,5.65
2019-01-23T12:13:20.247Z,5.69
2019-01-23T12:16:12.847Z,5.70
2019-01-23T12:19:03.116Z,5.75
2019-01-23T12:21:52.619Z,5.54
2019-01-23T12:24:42.674Z,5.27
2019-01-23T12:27:33.019Z,5.16
2019-01-23T12:30:26.738Z,4.98
2019-01-23T12:33:16.626Z,4.69
2019-01-23T12:36:06.225Z,4.56
2019-01-23T12:38:55.725Z,4.46
2019-01-23T12:41:45.594Z,4.43
2019-01-23T12:44:35.924Z,4.30
2019-01-23T12:47:26.915Z,4.26
2019-01-23T12:50:23.290Z,4.20
2019-01-23T12:53:14.559Z,4.08
2019-01-23T12:56:04.446Z,3.97
2019-01-23T12:58:54.295Z,3.89
2019-01-23T13:01:44.656Z,3.67
2019-01-23T13:04:34.921Z,3.63
2019-01-23T13:07:25.845Z,3.47
2019-01-23T13:10:18.805Z,3.42
2019-01-23T13:13:08.864Z,3.35
2019-01-23T13:15:58.931Z,3.27
2019-01-23T13:18:50.300Z,3.15
2019-01-23T13:21:40.437Z,3.19
2019-01-23T13:24:30.534Z,3.09
2019-01-23T13:27:20.020Z,3.08
2019-01-23T13:30:13.247Z,3.03
2019-01-23T13:33:03.179Z,2.44
2019-01-23T13:35:53.386Z,2.54
2019-01-23T13:38:43.114Z,2.13
2019-01-23T13:41:33.087Z,1.93
2019-01-23T13:44:23.316Z,2.09
2019-01-23T13:47:13.043Z,2.13
2019-01-23T13:50:04.536Z,2.26
2019-01-23T13:52:54.721Z,2.19
2019-01-23T13:55:44.358Z,2.31
2019-01-23T13:58:34.417Z,2.33
2019-01-23T14:01:24.854Z,2.28
2019-01-23T14:04:14.581Z,2.23
2019-01-23T14:07:04.710Z,2.22
2019-01-23T14:09:55.302Z,2.10
2019-01-23T14:12:45.476Z,2.14
2019-01-23T14:15:37.574Z,2.07
2019-01-23T14:18:27.837Z,1.86
2019-01-23T14:21:17.680Z,1.91
2019-01-23T14:24:07.630Z,1.96
2019-01-23T14:26:57.619Z,1.88
2019-01-23T14:29:47.432Z,1.79
2019-01-23T14:32:37.268Z,1.77
2019-01-23T14:35:27.583Z,1.70
2019-01-23T14:38:17.753Z,1.54
2019-01-23T14:41:07.464Z,1.53
2019-01-23T14:43:57.113Z,1.53
2019-01-23T14:46:46.905Z,1.13
2019-01-23T14:49:37.454Z,1.12
2019-01-23T14:52:27.417Z,0.89
2019-01-23T14:55:17.376Z,0.94
2019-01-23T14:58:07.545Z,0.90
2019-01-23T15:00:58.465Z,0.40
2019-01-23T15:03:48.901Z,0.24
2019-01-23T15:06:38.594Z,0.58
2019-01-23T15:09:28.428Z,0.73
2019-01-23T15:12:18.628Z,0.70
2019-01-23T15:15:09.269Z,0.67
2019-01-23T15:17:59.997Z,0.51
2019-01-23T15:20:51.272Z,-0.20
2019-01-23T15:23:41.401Z,-0.04
2019-01-23T15:26:31.333Z,-0.18
2019-01-23T15:29:21.680Z,-0.33
2019-01-23T15:32:17.264Z,-0.35
2019-01-23T15:35:03.651Z,-0.34
2019-01-23T15:37:53.396Z,-0.47
2019-01-23T15:40:44.444Z,-0.48
2019-01-23T15:43:35.176Z,-0.53
2019-01-23T15:46:25.305Z,-0.67
2019-01-23T15:49:15.352Z,-0.72
2019-01-23T15:52:05.894Z,-0.91
2019-01-23T15:54:55.963Z,-0.98
2019-01-23T15:57:46.063Z,-1.04
2019-01-23T16:00:36.463Z,-1.15
2019-01-23T16:03:25.911Z,-1.25
2019-01-23T16:06:15.919Z,-1.31
2019-01-23T16:09:08.131Z,-1.33
2019-01-23T16:11:58.609Z,-1.29
2019-01-23T16:14:49.001Z,-1.42
2019-01-23T16:17:38.885Z,-1.49
2019-01-23T16:20:28.938Z,-1.68
2019-01-23T16:23:19.241Z,-1.57
2019-01-23T16:26:09.436Z,-1.66
2019-01-23T16:28:59.566Z,-1.75
2019-01-23T16:31:49.679Z,-1.88
2019-01-23T16:34:39.751Z,-1.86
2019-01-23T16:37:29.479Z,-2.07
2019-01-23T16:40:19.464Z,-2.06
2019-01-23T16:43:09.950Z,-2.10
2019-01-23T16:45:59.996Z,-2.10
2019-01-23T16:48:50.446Z,-2.04
2019-01-23T16:51:40.485Z,-2.13
2019-01-23T16:54:31.525Z,-2.11
2019-01-23T16:57:21.525Z,-2.10
2019-01-23T17:00:16.017Z,-2.10
2019-01-23T17:03:07.469Z,-2.06
2019-01-23T17:05:57.551Z,-1.99
2019-01-23T17:08:47.772Z,-1.96
2019-01-23T17:11:38.277Z,-2.09
2019-01-23T17:14:28.967Z,-2.05
2019-01-23T17:17:19.314Z,-2.03
2019-01-23T17:20:18.220Z,-2.05
2019-01-23T17:23:09.158Z,-2.15
2019-01-23T17:25:59.580Z,-2.25
2019-01-23T17:28:49.799Z,-2.27
2019-01-23T17:31:39.867Z,-2.22
2019-01-23T17:34:30.140Z,-2.36
2019-01-23T17:37:20.742Z,-2.54
2019-01-23T17:40:14.644Z,-2.55
2019-01-23T17:43:04.993Z,-2.55
2019-01-23T17:45:55.364Z,-2.48
2019-01-23T17:48:46.392Z,-2.48
2019-01-23T17:51:36.761Z,-2.51
2019-01-23T17:54:26.901Z,-2.55
2019-01-23T17:57:17.415Z,-2.57
2019-01-23T18:00:11.082Z,-2.60
2019-01-23T18:03:01.456Z,-2.59
2019-01-23T18:05:52.241Z,-2.74
2019-01-23T18:08:42.687Z,-2.67
2019-01-23T18:11:32.986Z,-2.62
2019-01-23T18:14:23.167Z,-2.70
2019-01-23T18:17:13.750Z,-2.58
2019-01-23T18:20:05.785Z,-2.55
2019-01-23T18:22:56.301Z,-2.54
2019-01-23T18:25:46.486Z,-2.42
2019-01-23T18:28:37.317Z,-2.43
2019-01-23T18:31:46.962Z,-2.49
2019-01-23T18:35:35.595Z,-2.43
2019-01-23T18:39:06.018Z,-2.35
2019-01-23T18:42:42.939Z,-2.36
2019-01-23T18:46:01.487Z,-2.49
2019-01-23T18:49:24.743Z,-3.05
2019-01-23T18:52:15.985Z,-3.04
2019-01-23T18:55:10.192Z,-3.04
2019-01-23T18:58:01.026Z,-2.93
2019-01-23T19:00:51.657Z,-3.05
2019-01-23T19:03:43.370Z,-2.90
2019-01-23T19:06:34.174Z,-2.83
2019-01-23T19:09:24.543Z,-2.76
2019-01-23T19:12:15.416Z,-2.84
2019-01-23T19:15:09.149Z,-2.70
2019-01-23T19:17:59.894Z,-2.59
2019-01-23T19:20:50.538Z,-2.60
2019-01-23T19:23:41.310Z,-2.65
2019-01-23T19:26:32.187Z,-2.58
2019-01-23T19:29:23.056Z,-2.74
2019-01-23T19:35:06.421Z,-2.46
2019-01-23T19:37:57.084Z,-2.41
2019-01-23T19:40:50.106Z,-2.34
2019-01-23T19:43:40.877Z,-2.30
2019-01-23T19:46:31.396Z,-2.28
2019-01-23T19:49:21.742Z,-2.20
2019-01-23T19:52:12.756Z,-2.17
2019-01-23T19:55:03.033Z,-2.07
2019-01-23T19:57:54.079Z,-1.99
2019-01-23T20:00:44.234Z,-2.31
2019-01-23T20:03:34.799Z,-2.03
2019-01-23T20:06:25.355Z,-1.89
2019-01-23T20:09:16.311Z,-1.99
2019-01-23T20:12:07.576Z,-1.92
2019-01-23T20:14:58.451Z,-2.03
2019-01-23T20:17:49.699Z,-1.91
2019-01-23T20:20:40.544Z,-1.81
2019-01-23T20:23:31.234Z,-1.72
2019-01-23T20:26:21.300Z,-1.71
2019-01-23T20:29:12.213Z,-1.70
2019-01-23T20:32:02.698Z,-1.66
2019-01-23T20:34:53.037Z,-1.66
2019-01-23T20:37:43.707Z,-1.62
2019-01-23T20:40:33.347Z,-1.59
2019-01-23T20:43:23.684Z,-1.53
2019-01-23T20:46:17.261Z,-1.52
2019-01-23T20:49:08.861Z,-1.53
2019-01-23T20:51:59.623Z,-1.48
2019-01-23T20:54:50.434Z,-1.42
2019-01-23T20:57:41.332Z,-1.69
2019-01-23T21:00:33.830Z,-1.50
2019-01-23T21:03:23.918Z,-1.40
2019-01-23T21:06:14.760Z,-1.35
2019-01-23T21:09:09.024Z,-1.28
2019-01-23T21:11:59.891Z,-1.44
2019-01-23T21:14:50.403Z,-1.37
2019-01-23T21:17:40.689Z,-1.31
2019-01-23T21:20:35.419Z,-1.28
2019-01-23T21:23:27.084Z,-1.29
2019-01-23T21:26:17.411Z,-1.15
2019-01-23T21:29:07.940Z,-1.05
2019-01-23T21:31:58.576Z,-1.03
2019-01-23T21:34:49.404Z,-1.00
2019-01-23T21:37:40.266Z,-0.90
2019-01-23T21:40:33.302Z,-0.92
2019-01-23T21:43:23.722Z,-0.93
2019-01-23T21:46:14.464Z,-0.96
2019-01-23T21:49:05.204Z,-1.05
2019-01-23T21:51:55.336Z,-0.91
2019-01-23T21:54:45.244Z,-0.89
2019-01-23T21:57:35.100Z,-0.89
2019-01-23T22:00:41.949Z,-0.90
2019-01-23T22:03:31.981Z,-0.98
2019-01-23T22:06:22.380Z,-0.98
2019-01-23T22:09:12.452Z,-0.97
2019-01-23T22:12:02.458Z,-0.98
2019-01-23T22:14:52.271Z,-0.96
2019-01-23T22:17:42.546Z,-0.98
2019-01-23T22:20:32.474Z,-1.03
2019-01-23T22:23:24.027Z,-1.20
2019-01-23T22:26:13.774Z,-1.12
2019-01-23T22:29:03.504Z,-1.05
2019-01-23T22:31:53.476Z,-1.06
2019-01-23T22:34:43.211Z,-1.03
2019-01-23T22:37:33.307Z,-1.09
2019-01-23T22:40:23.690Z,-1.06
2019-01-23T22:43:15.124Z,-1.07
2019-01-23T22:46:05.921Z,-1.07
2019-01-23T22:48:55.467Z,-1.10
2019-01-23T22:51:45.330Z,-4.02
2019-01-23T22:54:35.386Z,-1.21
2019-01-23T22:57:25.393Z,-1.23
2019-01-23T23:01:19.324Z,-1.24
2019-01-23T23:04:09.435Z,-1.27
2019-01-23T23:07:00.567Z,-1.36
2019-01-23T23:09:50.720Z,-1.37
2019-01-23T23:12:40.752Z,-1.39
2019-01-23T23:15:30.809Z,-1.42
2019-01-23T23:18:20.667Z,-1.49
2019-01-23T23:21:10.533Z,-1.52
2019-01-23T23:24:00.353Z,-1.55
2019-01-23T23:26:50.325Z,-1.62
2019-01-23T23:29:41.728Z,-1.68
2019-01-23T23:32:31.882Z,-1.74
2019-01-23T23:35:24.799Z,-1.76
2019-01-23T23:38:14.723Z,-1.81
2019-01-23T23:41:04.965Z,-1.86
2019-01-23T23:43:55.178Z,-1.92
2019-01-23T23:46:45.623Z,-1.92
2019-01-23T23:49:35.351Z,-1.97
2019-01-23T23:52:25.770Z,-2.03
2019-01-23T23:55:16.481Z,-2.08
2019-01-23T23:58:06.400Z,-4.48
